sensor_id;sensor_type;location;lat;lon;timestamp;temperature;humidity
11229;DHT22;5671;47.936;8.716;2023-09-19T00:00:21;13.80;84.60
11229;DHT22;5671;47.936;8.716;2023-09-19T00:03:00;13.80;84.70
11229;DHT22;5671;47.936;8.716;2023-09-19T00:05:34;13.90;84.90
11229;DHT22;5671;47.936;8.716;2023-09-19T00:08:02;13.90;85.20
11229;DHT22;5671;47.936;8.716;2023-09-19T00:10:30;13.90;85.20
11229;DHT22;5671;47.936;8.716;2023-09-19T00:12:58;13.80;84.90
11229;DHT22;5671;47.936;8.716;2023-09-19T00:15:27;13.80;84.60
11229;DHT22;5671;47.936;8.716;2023-09-19T00:17:55;13.80;85.30
11229;DHT22;5671;47.936;8.716;2023-09-19T00:20:22;13.80;85.10
11229;DHT22;5671;47.936;8.716;2023-09-19T00:22:52;13.80;85.40
11229;DHT22;5671;47.936;8.716;2023-09-19T00:25:20;13.80;85.70
11229;DHT22;5671;47.936;8.716;2023-09-19T00:28:01;13.80;85.60
11229;DHT22;5671;47.936;8.716;2023-09-19T00:30:29;13.80;85.40
11229;DHT22;5671;47.936;8.716;2023-09-19T00:32:56;13.80;85.30
11229;DHT22;5671;47.936;8.716;2023-09-19T00:35:23;13.80;85.00
11229;DHT22;5671;47.936;8.716;2023-09-19T00:37:51;13.80;85.00
11229;DHT22;5671;47.936;8.716;2023-09-19T00:40:18;13.80;85.00
11229;DHT22;5671;47.936;8.716;2023-09-19T00:42:45;13.80;85.00
11229;DHT22;5671;47.936;8.716;2023-09-19T00:45:17;13.80;85.00
11229;DHT22;5671;47.936;8.716;2023-09-19T00:47:48;13.80;85.40
11229;DHT22;5671;47.936;8.716;2023-09-19T00:50:17;13.80;86.10
11229;DHT22;5671;47.936;8.716;2023-09-19T00:52:44;13.80;85.70
11229;DHT22;5671;47.936;8.716;2023-09-19T00:55:15;13.70;85.90
11229;DHT22;5671;47.936;8.716;2023-09-19T00:57:45;13.80;85.80
11229;DHT22;5671;47.936;8.716;2023-09-19T01:00:13;13.70;85.80
11229;DHT22;5671;47.936;8.716;2023-09-19T01:02:43;13.80;86.10
11229;DHT22;5671;47.936;8.716;2023-09-19T01:05:10;13.70;85.70
11229;DHT22;5671;47.936;8.716;2023-09-19T01:07:38;13.80;85.80
11229;DHT22;5671;47.936;8.716;2023-09-19T01:10:07;13.70;86.00
11229;DHT22;5671;47.936;8.716;2023-09-19T01:12:46;13.80;85.70
11229;DHT22;5671;47.936;8.716;2023-09-19T01:15:21;13.80;86.00
11229;DHT22;5671;47.936;8.716;2023-09-19T01:17:56;13.80;86.20
11229;DHT22;5671;47.936;8.716;2023-09-19T01:20:33;13.70;85.70
11229;DHT22;5671;47.936;8.716;2023-09-19T01:23:11;13.70;85.80
11229;DHT22;5671;47.936;8.716;2023-09-19T01:26:07;13.80;85.20
11229;DHT22;5671;47.936;8.716;2023-09-19T01:28:51;13.80;84.70
11229;DHT22;5671;47.936;8.716;2023-09-19T01:31:22;13.80;84.10
11229;DHT22;5671;47.936;8.716;2023-09-19T01:33:59;13.80;84.20
11229;DHT22;5671;47.936;8.716;2023-09-19T01:36:30;13.80;84.20
11229;DHT22;5671;47.936;8.716;2023-09-19T01:39:00;13.80;83.80
11229;DHT22;5671;47.936;8.716;2023-09-19T01:41:48;13.90;83.80
11229;DHT22;5671;47.936;8.716;2023-09-19T01:44:22;13.80;84.00
11229;DHT22;5671;47.936;8.716;2023-09-19T01:46:56;13.80;83.50
11229;DHT22;5671;47.936;8.716;2023-09-19T01:49:33;13.90;83.30
11229;DHT22;5671;47.936;8.716;2023-09-19T01:52:10;13.90;83.40
11229;DHT22;5671;47.936;8.716;2023-09-19T01:54:46;13.90;83.60
11229;DHT22;5671;47.936;8.716;2023-09-19T01:57:26;13.90;83.20
11229;DHT22;5671;47.936;8.716;2023-09-19T02:00:01;13.90;83.20
11229;DHT22;5671;47.936;8.716;2023-09-19T02:05:01;13.80;82.80
11229;DHT22;5671;47.936;8.716;2023-09-19T02:07:29;13.80;83.10
11229;DHT22;5671;47.936;8.716;2023-09-19T02:10:03;13.80;82.60
11229;DHT22;5671;47.936;8.716;2023-09-19T02:12:31;13.90;82.50
11229;DHT22;5671;47.936;8.716;2023-09-19T02:14:58;13.90;82.70
11229;DHT22;5671;47.936;8.716;2023-09-19T02:17:25;13.80;82.40
11229;DHT22;5671;47.936;8.716;2023-09-19T02:19:54;13.90;82.60
11229;DHT22;5671;47.936;8.716;2023-09-19T02:22:22;13.90;82.80
11229;DHT22;5671;47.936;8.716;2023-09-19T02:24:50;13.90;82.70
11229;DHT22;5671;47.936;8.716;2023-09-19T02:27:18;13.90;82.80
11229;DHT22;5671;47.936;8.716;2023-09-19T02:29:45;13.90;83.00
11229;DHT22;5671;47.936;8.716;2023-09-19T02:32:12;13.90;82.90
11229;DHT22;5671;47.936;8.716;2023-09-19T02:34:38;13.90;83.00
11229;DHT22;5671;47.936;8.716;2023-09-19T02:37:07;13.90;83.30
11229;DHT22;5671;47.936;8.716;2023-09-19T02:39:34;13.90;83.00
11229;DHT22;5671;47.936;8.716;2023-09-19T02:42:01;13.90;83.10
11229;DHT22;5671;47.936;8.716;2023-09-19T02:44:29;13.90;83.40
11229;DHT22;5671;47.936;8.716;2023-09-19T02:46:58;13.90;83.00
11229;DHT22;5671;47.936;8.716;2023-09-19T02:49:25;14.00;82.80
11229;DHT22;5671;47.936;8.716;2023-09-19T02:51:52;14.00;82.90
11229;DHT22;5671;47.936;8.716;2023-09-19T02:54:20;14.00;83.20
11229;DHT22;5671;47.936;8.716;2023-09-19T02:56:49;14.00;82.60
11229;DHT22;5671;47.936;8.716;2023-09-19T02:59:16;14.00;82.40
11229;DHT22;5671;47.936;8.716;2023-09-19T03:01:45;14.00;82.40
11229;DHT22;5671;47.936;8.716;2023-09-19T03:04:13;14.00;82.40
11229;DHT22;5671;47.936;8.716;2023-09-19T03:06:45;14.00;82.10
11229;DHT22;5671;47.936;8.716;2023-09-19T03:09:12;14.00;82.30
11229;DHT22;5671;47.936;8.716;2023-09-19T03:11:40;14.00;82.20
11229;DHT22;5671;47.936;8.716;2023-09-19T03:14:07;14.00;82.60
11229;DHT22;5671;47.936;8.716;2023-09-19T03:16:35;14.00;82.30
11229;DHT22;5671;47.936;8.716;2023-09-19T03:19:05;14.00;82.10
11229;DHT22;5671;47.936;8.716;2023-09-19T03:21:32;14.00;82.20
11229;DHT22;5671;47.936;8.716;2023-09-19T03:24:01;14.00;82.20
11229;DHT22;5671;47.936;8.716;2023-09-19T03:26:28;14.00;82.10
11229;DHT22;5671;47.936;8.716;2023-09-19T03:28:57;14.00;82.60
11229;DHT22;5671;47.936;8.716;2023-09-19T03:31:24;14.00;82.30
11229;DHT22;5671;47.936;8.716;2023-09-19T03:33:51;14.00;83.10
11229;DHT22;5671;47.936;8.716;2023-09-19T03:36:18;14.00;82.80
11229;DHT22;5671;47.936;8.716;2023-09-19T03:38:45;14.00;82.80
11229;DHT22;5671;47.936;8.716;2023-09-19T03:41:11;14.00;82.90
11229;DHT22;5671;47.936;8.716;2023-09-19T03:43:39;14.00;82.80
11229;DHT22;5671;47.936;8.716;2023-09-19T03:46:08;14.00;82.50
11229;DHT22;5671;47.936;8.716;2023-09-19T03:48:34;14.00;82.50
11229;DHT22;5671;47.936;8.716;2023-09-19T03:51:01;14.00;82.20
11229;DHT22;5671;47.936;8.716;2023-09-19T03:53:28;14.00;82.50
11229;DHT22;5671;47.936;8.716;2023-09-19T03:55:55;14.00;83.00
11229;DHT22;5671;47.936;8.716;2023-09-19T03:58:22;14.00;82.80
11229;DHT22;5671;47.936;8.716;2023-09-19T04:00:50;14.00;82.70
11229;DHT22;5671;47.936;8.716;2023-09-19T04:03:18;14.00;82.30
11229;DHT22;5671;47.936;8.716;2023-09-19T04:05:46;14.00;82.40
11229;DHT22;5671;47.936;8.716;2023-09-19T04:08:13;14.00;82.20
11229;DHT22;5671;47.936;8.716;2023-09-19T04:10:42;14.00;82.30
11229;DHT22;5671;47.936;8.716;2023-09-19T04:13:09;14.00;82.50
11229;DHT22;5671;47.936;8.716;2023-09-19T04:15:36;13.90;82.60
11229;DHT22;5671;47.936;8.716;2023-09-19T04:18:03;14.00;82.60
11229;DHT22;5671;47.936;8.716;2023-09-19T04:20:31;14.00;82.80
11229;DHT22;5671;47.936;8.716;2023-09-19T04:22:58;14.00;82.90
11229;DHT22;5671;47.936;8.716;2023-09-19T04:25:26;14.00;83.30
11229;DHT22;5671;47.936;8.716;2023-09-19T04:27:53;13.90;83.20
11229;DHT22;5671;47.936;8.716;2023-09-19T04:30:20;13.90;83.20
11229;DHT22;5671;47.936;8.716;2023-09-19T04:32:46;13.90;83.20
11229;DHT22;5671;47.936;8.716;2023-09-19T04:35:16;13.90;82.90
11229;DHT22;5671;47.936;8.716;2023-09-19T04:37:44;13.90;83.10
11229;DHT22;5671;47.936;8.716;2023-09-19T04:40:12;13.90;83.30
11229;DHT22;5671;47.936;8.716;2023-09-19T04:42:40;13.90;82.90
11229;DHT22;5671;47.936;8.716;2023-09-19T04:45:08;13.90;83.00
11229;DHT22;5671;47.936;8.716;2023-09-19T04:47:36;13.90;83.10
11229;DHT22;5671;47.936;8.716;2023-09-19T04:50:06;13.90;83.30
11229;DHT22;5671;47.936;8.716;2023-09-19T04:52:33;13.90;83.20
11229;DHT22;5671;47.936;8.716;2023-09-19T04:55:01;13.90;83.90
11229;DHT22;5671;47.936;8.716;2023-09-19T04:57:29;13.90;83.40
11229;DHT22;5671;47.936;8.716;2023-09-19T04:59:57;13.90;83.70
11229;DHT22;5671;47.936;8.716;2023-09-19T05:02:24;13.90;83.50
11229;DHT22;5671;47.936;8.716;2023-09-19T05:04:50;13.90;83.60
11229;DHT22;5671;47.936;8.716;2023-09-19T05:07:19;13.90;83.40
11229;DHT22;5671;47.936;8.716;2023-09-19T05:09:47;13.90;83.40
11229;DHT22;5671;47.936;8.716;2023-09-19T05:12:15;13.90;83.80
11229;DHT22;5671;47.936;8.716;2023-09-19T05:14:45;13.90;83.70
11229;DHT22;5671;47.936;8.716;2023-09-19T05:17:13;13.90;83.70
11229;DHT22;5671;47.936;8.716;2023-09-19T05:19:42;13.90;83.50
11229;DHT22;5671;47.936;8.716;2023-09-19T05:22:09;13.90;83.60
11229;DHT22;5671;47.936;8.716;2023-09-19T05:24:36;13.90;83.90
11229;DHT22;5671;47.936;8.716;2023-09-19T05:27:04;13.90;83.70
11229;DHT22;5671;47.936;8.716;2023-09-19T05:29:34;13.90;83.90
11229;DHT22;5671;47.936;8.716;2023-09-19T05:32:01;13.90;83.90
11229;DHT22;5671;47.936;8.716;2023-09-19T05:34:29;13.90;84.00
11229;DHT22;5671;47.936;8.716;2023-09-19T05:36:56;13.90;83.60
11229;DHT22;5671;47.936;8.716;2023-09-19T05:39:23;13.90;83.90
11229;DHT22;5671;47.936;8.716;2023-09-19T05:41:49;13.90;84.00
11229;DHT22;5671;47.936;8.716;2023-09-19T05:44:16;13.90;83.90
11229;DHT22;5671;47.936;8.716;2023-09-19T05:46:44;13.90;84.50
11229;DHT22;5671;47.936;8.716;2023-09-19T05:49:13;13.90;84.20
11229;DHT22;5671;47.936;8.716;2023-09-19T05:51:41;13.90;84.20
11229;DHT22;5671;47.936;8.716;2023-09-19T05:54:08;13.90;84.20
11229;DHT22;5671;47.936;8.716;2023-09-19T05:56:36;13.90;84.20
11229;DHT22;5671;47.936;8.716;2023-09-19T05:59:03;14.00;84.20
11229;DHT22;5671;47.936;8.716;2023-09-19T06:01:30;14.00;84.30
11229;DHT22;5671;47.936;8.716;2023-09-19T06:04:01;14.00;84.30
11229;DHT22;5671;47.936;8.716;2023-09-19T06:06:28;14.00;84.30
11229;DHT22;5671;47.936;8.716;2023-09-19T06:08:55;14.00;84.20
11229;DHT22;5671;47.936;8.716;2023-09-19T06:11:23;14.00;84.40
11229;DHT22;5671;47.936;8.716;2023-09-19T06:13:52;14.00;84.60
11229;DHT22;5671;47.936;8.716;2023-09-19T06:16:18;14.10;84.50
11229;DHT22;5671;47.936;8.716;2023-09-19T06:18:46;14.10;83.90
11229;DHT22;5671;47.936;8.716;2023-09-19T06:21:14;14.10;83.90
11229;DHT22;5671;47.936;8.716;2023-09-19T06:23:41;14.10;83.90
11229;DHT22;5671;47.936;8.716;2023-09-19T06:26:08;14.20;83.90
11229;DHT22;5671;47.936;8.716;2023-09-19T06:28:35;14.20;83.40
11229;DHT22;5671;47.936;8.716;2023-09-19T06:31:02;14.20;83.70
11229;DHT22;5671;47.936;8.716;2023-09-19T06:33:35;14.20;83.30
11229;DHT22;5671;47.936;8.716;2023-09-19T06:36:04;14.20;82.90
11229;DHT22;5671;47.936;8.716;2023-09-19T06:38:33;14.30;82.90
11229;DHT22;5671;47.936;8.716;2023-09-19T06:41:01;14.30;82.80
11229;DHT22;5671;47.936;8.716;2023-09-19T06:43:31;14.30;82.70
11229;DHT22;5671;47.936;8.716;2023-09-19T06:45:58;14.30;82.80
11229;DHT22;5671;47.936;8.716;2023-09-19T06:48:25;14.30;82.70
11229;DHT22;5671;47.936;8.716;2023-09-19T06:50:54;14.40;82.80
11229;DHT22;5671;47.936;8.716;2023-09-19T06:53:22;14.40;82.90
11229;DHT22;5671;47.936;8.716;2023-09-19T06:55:50;14.40;82.40
11229;DHT22;5671;47.936;8.716;2023-09-19T06:58:17;14.50;82.20
11229;DHT22;5671;47.936;8.716;2023-09-19T07:00:45;14.50;82.00
11229;DHT22;5671;47.936;8.716;2023-09-19T07:03:13;14.60;81.70
11229;DHT22;5671;47.936;8.716;2023-09-19T07:05:42;14.60;82.20
11229;DHT22;5671;47.936;8.716;2023-09-19T07:08:09;14.70;81.80
11229;DHT22;5671;47.936;8.716;2023-09-19T07:10:38;14.70;80.70
11229;DHT22;5671;47.936;8.716;2023-09-19T07:13:08;14.80;80.50
11229;DHT22;5671;47.936;8.716;2023-09-19T07:15:37;14.90;80.90
11229;DHT22;5671;47.936;8.716;2023-09-19T07:18:05;15.00;80.50
11229;DHT22;5671;47.936;8.716;2023-09-19T07:20:32;15.00;79.80
11229;DHT22;5671;47.936;8.716;2023-09-19T07:23:00;15.10;79.70
11229;DHT22;5671;47.936;8.716;2023-09-19T07:25:27;15.20;79.30
11229;DHT22;5671;47.936;8.716;2023-09-19T07:27:55;15.30;78.20
11229;DHT22;5671;47.936;8.716;2023-09-19T07:30:23;15.30;77.40
11229;DHT22;5671;47.936;8.716;2023-09-19T07:32:50;15.40;76.90
11229;DHT22;5671;47.936;8.716;2023-09-19T07:35:18;15.50;76.50
11229;DHT22;5671;47.936;8.716;2023-09-19T07:37:45;15.60;76.70
11229;DHT22;5671;47.936;8.716;2023-09-19T07:40:15;15.60;76.10
11229;DHT22;5671;47.936;8.716;2023-09-19T07:42:42;15.70;73.90
11229;DHT22;5671;47.936;8.716;2023-09-19T07:45:10;15.80;73.50
11229;DHT22;5671;47.936;8.716;2023-09-19T07:47:44;15.80;74.40
11229;DHT22;5671;47.936;8.716;2023-09-19T07:50:11;15.90;74.40
11229;DHT22;5671;47.936;8.716;2023-09-19T07:52:38;16.00;74.70
11229;DHT22;5671;47.936;8.716;2023-09-19T07:55:06;16.00;72.30
11229;DHT22;5671;47.936;8.716;2023-09-19T07:57:36;16.10;72.70
11229;DHT22;5671;47.936;8.716;2023-09-19T08:00:04;16.10;72.20
11229;DHT22;5671;47.936;8.716;2023-09-19T08:02:34;16.20;71.70
11229;DHT22;5671;47.936;8.716;2023-09-19T08:05:05;16.20;71.50
11229;DHT22;5671;47.936;8.716;2023-09-19T08:07:35;16.30;71.10
11229;DHT22;5671;47.936;8.716;2023-09-19T08:10:03;16.40;71.40
11229;DHT22;5671;47.936;8.716;2023-09-19T08:12:30;16.40;70.60
11229;DHT22;5671;47.936;8.716;2023-09-19T08:14:58;16.60;70.30
11229;DHT22;5671;47.936;8.716;2023-09-19T08:17:24;16.60;69.90
11229;DHT22;5671;47.936;8.716;2023-09-19T08:19:51;16.70;70.40
11229;DHT22;5671;47.936;8.716;2023-09-19T08:22:20;16.80;70.10
11229;DHT22;5671;47.936;8.716;2023-09-19T08:24:47;16.80;70.60
11229;DHT22;5671;47.936;8.716;2023-09-19T08:27:14;16.90;70.30
11229;DHT22;5671;47.936;8.716;2023-09-19T08:29:43;16.90;70.70
11229;DHT22;5671;47.936;8.716;2023-09-19T08:32:12;16.90;69.80
11229;DHT22;5671;47.936;8.716;2023-09-19T08:34:38;17.00;69.60
11229;DHT22;5671;47.936;8.716;2023-09-19T08:37:05;17.00;70.40
11229;DHT22;5671;47.936;8.716;2023-09-19T08:39:34;17.00;69.00
11229;DHT22;5671;47.936;8.716;2023-09-19T08:42:02;17.10;68.30
11229;DHT22;5671;47.936;8.716;2023-09-19T08:44:30;17.10;68.40
11229;DHT22;5671;47.936;8.716;2023-09-19T08:47:15;17.10;69.20
11229;DHT22;5671;47.936;8.716;2023-09-19T08:49:53;17.10;69.00
11229;DHT22;5671;47.936;8.716;2023-09-19T08:52:27;17.10;68.90
11229;DHT22;5671;47.936;8.716;2023-09-19T08:54:59;17.00;68.60
11229;DHT22;5671;47.936;8.716;2023-09-19T08:57:33;17.00;69.60
11229;DHT22;5671;47.936;8.716;2023-09-19T09:00:05;17.00;69.90
11229;DHT22;5671;47.936;8.716;2023-09-19T09:02:37;17.00;69.50
11229;DHT22;5671;47.936;8.716;2023-09-19T09:05:06;17.00;69.20
11229;DHT22;5671;47.936;8.716;2023-09-19T09:07:35;17.00;69.00
11229;DHT22;5671;47.936;8.716;2023-09-19T09:10:07;17.00;68.60
11229;DHT22;5671;47.936;8.716;2023-09-19T09:12:35;17.00;67.90
11229;DHT22;5671;47.936;8.716;2023-09-19T09:15:05;17.00;67.80
11229;DHT22;5671;47.936;8.716;2023-09-19T09:17:34;17.00;68.00
11229;DHT22;5671;47.936;8.716;2023-09-19T09:20:05;17.10;66.60
11229;DHT22;5671;47.936;8.716;2023-09-19T09:22:33;17.10;67.50
11229;DHT22;5671;47.936;8.716;2023-09-19T09:25:03;17.10;66.90
11229;DHT22;5671;47.936;8.716;2023-09-19T09:27:32;17.10;66.30
11229;DHT22;5671;47.936;8.716;2023-09-19T09:29:59;17.20;66.90
11229;DHT22;5671;47.936;8.716;2023-09-19T09:32:27;17.20;66.70
11229;DHT22;5671;47.936;8.716;2023-09-19T09:34:56;17.20;65.30
11229;DHT22;5671;47.936;8.716;2023-09-19T09:37:23;17.20;65.80
11229;DHT22;5671;47.936;8.716;2023-09-19T09:39:53;17.30;64.50
11229;DHT22;5671;47.936;8.716;2023-09-19T09:42:34;17.20;64.30
11229;DHT22;5671;47.936;8.716;2023-09-19T09:45:15;17.20;63.40
11229;DHT22;5671;47.936;8.716;2023-09-19T09:47:44;17.30;64.30
11229;DHT22;5671;47.936;8.716;2023-09-19T09:50:27;17.30;64.10
11229;DHT22;5671;47.936;8.716;2023-09-19T09:53:28;17.30;64.30
11229;DHT22;5671;47.936;8.716;2023-09-19T09:56:01;17.30;64.20
11229;DHT22;5671;47.936;8.716;2023-09-19T09:58:33;17.30;63.20
11229;DHT22;5671;47.936;8.716;2023-09-19T10:01:01;17.30;64.10
11229;DHT22;5671;47.936;8.716;2023-09-19T10:03:38;17.20;63.50
11229;DHT22;5671;47.936;8.716;2023-09-19T10:06:13;17.20;63.60
11229;DHT22;5671;47.936;8.716;2023-09-19T10:09:02;17.20;63.90
11229;DHT22;5671;47.936;8.716;2023-09-19T10:11:31;17.20;64.00
11229;DHT22;5671;47.936;8.716;2023-09-19T10:14:00;17.20;63.20
11229;DHT22;5671;47.936;8.716;2023-09-19T10:16:35;17.20;63.40
11229;DHT22;5671;47.936;8.716;2023-09-19T10:19:06;17.20;62.90
11229;DHT22;5671;47.936;8.716;2023-09-19T10:21:36;17.20;63.50
11229;DHT22;5671;47.936;8.716;2023-09-19T10:24:04;17.20;63.20
11229;DHT22;5671;47.936;8.716;2023-09-19T10:26:34;17.20;62.70
11229;DHT22;5671;47.936;8.716;2023-09-19T10:29:06;17.20;62.60
11229;DHT22;5671;47.936;8.716;2023-09-19T10:31:42;17.20;62.20
11229;DHT22;5671;47.936;8.716;2023-09-19T10:34:14;17.20;62.50
11229;DHT22;5671;47.936;8.716;2023-09-19T10:36:44;17.20;61.40
11229;DHT22;5671;47.936;8.716;2023-09-19T10:39:15;17.20;62.80
11229;DHT22;5671;47.936;8.716;2023-09-19T10:41:51;17.30;62.30
11229;DHT22;5671;47.936;8.716;2023-09-19T10:44:25;17.40;63.10
11229;DHT22;5671;47.936;8.716;2023-09-19T10:46:54;17.50;63.80
11229;DHT22;5671;47.936;8.716;2023-09-19T10:49:22;17.60;61.90
11229;DHT22;5671;47.936;8.716;2023-09-19T10:51:53;17.70;63.00
11229;DHT22;5671;47.936;8.716;2023-09-19T10:54:26;17.70;61.60
11229;DHT22;5671;47.936;8.716;2023-09-19T10:56:55;17.80;60.70
11229;DHT22;5671;47.936;8.716;2023-09-19T10:59:25;17.90;60.40
11229;DHT22;5671;47.936;8.716;2023-09-19T11:01:57;18.00;59.80
11229;DHT22;5671;47.936;8.716;2023-09-19T11:04:26;18.10;58.80
11229;DHT22;5671;47.936;8.716;2023-09-19T11:07:02;18.10;59.40
11229;DHT22;5671;47.936;8.716;2023-09-19T11:09:46;18.20;58.30
11229;DHT22;5671;47.936;8.716;2023-09-19T11:18:53;18.50;57.30
11229;DHT22;5671;47.936;8.716;2023-09-19T11:21:53;18.50;58.80
11229;DHT22;5671;47.936;8.716;2023-09-19T11:24:31;18.60;57.30
11229;DHT22;5671;47.936;8.716;2023-09-19T11:27:16;18.60;57.80
11229;DHT22;5671;47.936;8.716;2023-09-19T11:29:44;18.70;57.00
11229;DHT22;5671;47.936;8.716;2023-09-19T11:32:12;18.70;55.00
11229;DHT22;5671;47.936;8.716;2023-09-19T11:34:47;18.70;57.30
11229;DHT22;5671;47.936;8.716;2023-09-19T11:40:47;18.80;56.10
11229;DHT22;5671;47.936;8.716;2023-09-19T11:43:34;18.80;55.50
11229;DHT22;5671;47.936;8.716;2023-09-19T11:46:09;18.80;56.10
11229;DHT22;5671;47.936;8.716;2023-09-19T11:48:39;18.70;55.80
11229;DHT22;5671;47.936;8.716;2023-09-19T11:51:13;18.70;55.90
11229;DHT22;5671;47.936;8.716;2023-09-19T11:53:48;18.80;56.10
11229;DHT22;5671;47.936;8.716;2023-09-19T11:56:19;18.80;54.90
11229;DHT22;5671;47.936;8.716;2023-09-19T11:58:49;18.80;54.90
11229;DHT22;5671;47.936;8.716;2023-09-19T12:01:22;18.80;55.70
11229;DHT22;5671;47.936;8.716;2023-09-19T12:03:53;18.80;57.70
11229;DHT22;5671;47.936;8.716;2023-09-19T12:06:24;18.90;56.90
11229;DHT22;5671;47.936;8.716;2023-09-19T12:08:54;19.00;57.10
11229;DHT22;5671;47.936;8.716;2023-09-19T12:11:23;19.10;57.60
11229;DHT22;5671;47.936;8.716;2023-09-19T12:13:54;19.10;58.20
11229;DHT22;5671;47.936;8.716;2023-09-19T12:16:24;19.20;58.00
11229;DHT22;5671;47.936;8.716;2023-09-19T12:18:51;19.30;56.20
11229;DHT22;5671;47.936;8.716;2023-09-19T12:21:25;19.40;56.70
11229;DHT22;5671;47.936;8.716;2023-09-19T12:24:11;19.50;56.70
11229;DHT22;5671;47.936;8.716;2023-09-19T12:26:42;19.60;56.90
11229;DHT22;5671;47.936;8.716;2023-09-19T12:29:12;19.70;56.50
11229;DHT22;5671;47.936;8.716;2023-09-19T12:31:48;19.80;57.00
11229;DHT22;5671;47.936;8.716;2023-09-19T12:34:19;19.90;56.00
11229;DHT22;5671;47.936;8.716;2023-09-19T12:36:47;20.00;56.40
11229;DHT22;5671;47.936;8.716;2023-09-19T12:39:23;20.10;56.50
11229;DHT22;5671;47.936;8.716;2023-09-19T12:41:53;20.20;56.00
11229;DHT22;5671;47.936;8.716;2023-09-19T12:44:20;20.20;55.50
11229;DHT22;5671;47.936;8.716;2023-09-19T12:46:50;20.30;52.80
11229;DHT22;5671;47.936;8.716;2023-09-19T12:49:20;20.30;52.80
11229;DHT22;5671;47.936;8.716;2023-09-19T12:51:54;20.30;53.50
11229;DHT22;5671;47.936;8.716;2023-09-19T12:54:22;20.20;53.50
11229;DHT22;5671;47.936;8.716;2023-09-19T12:56:50;20.30;54.30
11229;DHT22;5671;47.936;8.716;2023-09-19T12:59:29;20.30;53.60
11229;DHT22;5671;47.936;8.716;2023-09-19T13:02:04;20.30;53.30
11229;DHT22;5671;47.936;8.716;2023-09-19T13:04:32;20.40;53.60
11229;DHT22;5671;47.936;8.716;2023-09-19T13:07:40;20.40;53.90
11229;DHT22;5671;47.936;8.716;2023-09-19T13:10:14;20.50;53.40
11229;DHT22;5671;47.936;8.716;2023-09-19T13:12:43;20.50;53.10
11229;DHT22;5671;47.936;8.716;2023-09-19T13:15:15;20.50;53.60
11229;DHT22;5671;47.936;8.716;2023-09-19T13:17:46;20.50;53.90
11229;DHT22;5671;47.936;8.716;2023-09-19T13:20:24;20.60;53.30
11229;DHT22;5671;47.936;8.716;2023-09-19T13:22:59;20.60;54.50
11229;DHT22;5671;47.936;8.716;2023-09-19T13:25:34;20.60;53.40
11229;DHT22;5671;47.936;8.716;2023-09-19T13:28:01;20.60;52.70
11229;DHT22;5671;47.936;8.716;2023-09-19T13:30:30;20.60;53.20
11229;DHT22;5671;47.936;8.716;2023-09-19T13:33:07;20.70;53.20
11229;DHT22;5671;47.936;8.716;2023-09-19T13:35:35;20.60;53.00
11229;DHT22;5671;47.936;8.716;2023-09-19T13:38:05;20.70;52.00
11229;DHT22;5671;47.936;8.716;2023-09-19T13:40:35;20.70;53.10
11229;DHT22;5671;47.936;8.716;2023-09-19T13:43:07;20.70;52.80
11229;DHT22;5671;47.936;8.716;2023-09-19T13:45:34;20.80;53.40
11229;DHT22;5671;47.936;8.716;2023-09-19T13:48:02;20.70;51.10
11229;DHT22;5671;47.936;8.716;2023-09-19T13:50:29;20.70;51.90
11229;DHT22;5671;47.936;8.716;2023-09-19T13:52:57;20.70;51.90
11229;DHT22;5671;47.936;8.716;2023-09-19T13:55:33;20.60;51.20
11229;DHT22;5671;47.936;8.716;2023-09-19T13:58:00;20.60;51.40
11229;DHT22;5671;47.936;8.716;2023-09-19T14:00:27;20.60;51.40
11229;DHT22;5671;47.936;8.716;2023-09-19T14:02:54;20.50;51.80
11229;DHT22;5671;47.936;8.716;2023-09-19T14:05:21;20.50;51.60
11229;DHT22;5671;47.936;8.716;2023-09-19T14:07:48;20.50;51.80
11229;DHT22;5671;47.936;8.716;2023-09-19T14:10:18;20.50;52.40
11229;DHT22;5671;47.936;8.716;2023-09-19T14:12:47;20.50;51.40
11229;DHT22;5671;47.936;8.716;2023-09-19T14:15:14;20.60;52.30
11229;DHT22;5671;47.936;8.716;2023-09-19T14:17:41;20.60;53.50
11229;DHT22;5671;47.936;8.716;2023-09-19T14:20:10;20.60;52.10
11229;DHT22;5671;47.936;8.716;2023-09-19T14:22:37;20.50;51.50
11229;DHT22;5671;47.936;8.716;2023-09-19T14:25:05;20.50;51.20
11229;DHT22;5671;47.936;8.716;2023-09-19T14:27:35;20.60;51.90
11229;DHT22;5671;47.936;8.716;2023-09-19T14:30:04;20.60;52.90
11229;DHT22;5671;47.936;8.716;2023-09-19T14:32:36;20.60;53.00
11229;DHT22;5671;47.936;8.716;2023-09-19T14:35:07;20.60;53.40
11229;DHT22;5671;47.936;8.716;2023-09-19T14:37:36;20.60;52.40
11229;DHT22;5671;47.936;8.716;2023-09-19T14:40:08;20.60;53.80
11229;DHT22;5671;47.936;8.716;2023-09-19T14:42:41;20.70;53.50
11229;DHT22;5671;47.936;8.716;2023-09-19T14:45:16;20.60;53.60
11229;DHT22;5671;47.936;8.716;2023-09-19T14:47:45;20.70;54.40
11229;DHT22;5671;47.936;8.716;2023-09-19T14:50:12;20.80;52.40
11229;DHT22;5671;47.936;8.716;2023-09-19T14:52:40;20.80;51.80
11229;DHT22;5671;47.936;8.716;2023-09-19T14:55:08;20.80;52.50
11229;DHT22;5671;47.936;8.716;2023-09-19T14:57:40;20.80;53.30
11229;DHT22;5671;47.936;8.716;2023-09-19T15:00:08;20.80;54.40
11229;DHT22;5671;47.936;8.716;2023-09-19T15:02:39;20.80;54.00
11229;DHT22;5671;47.936;8.716;2023-09-19T15:05:07;20.80;53.80
11229;DHT22;5671;47.936;8.716;2023-09-19T15:07:35;20.70;53.00
11229;DHT22;5671;47.936;8.716;2023-09-19T15:10:04;20.70;53.20
11229;DHT22;5671;47.936;8.716;2023-09-19T15:12:35;20.70;53.00
11229;DHT22;5671;47.936;8.716;2023-09-19T15:15:03;20.70;54.30
11229;DHT22;5671;47.936;8.716;2023-09-19T15:17:32;20.70;54.20
11229;DHT22;5671;47.936;8.716;2023-09-19T15:20:00;20.70;54.80
11229;DHT22;5671;47.936;8.716;2023-09-19T15:22:32;20.70;54.30
11229;DHT22;5671;47.936;8.716;2023-09-19T15:24:58;20.60;54.90
11229;DHT22;5671;47.936;8.716;2023-09-19T15:27:25;20.70;55.10
11229;DHT22;5671;47.936;8.716;2023-09-19T15:29:52;20.70;54.20
11229;DHT22;5671;47.936;8.716;2023-09-19T15:32:19;20.70;53.40
11229;DHT22;5671;47.936;8.716;2023-09-19T15:34:47;20.60;53.90
11229;DHT22;5671;47.936;8.716;2023-09-19T15:37:15;20.60;53.80
11229;DHT22;5671;47.936;8.716;2023-09-19T15:39:42;20.60;53.70
11229;DHT22;5671;47.936;8.716;2023-09-19T15:42:10;20.60;52.70
11229;DHT22;5671;47.936;8.716;2023-09-19T15:44:37;20.50;53.40
11229;DHT22;5671;47.936;8.716;2023-09-19T15:47:06;20.50;53.30
11229;DHT22;5671;47.936;8.716;2023-09-19T15:49:33;20.50;53.50
11229;DHT22;5671;47.936;8.716;2023-09-19T15:52:00;20.40;54.40
11229;DHT22;5671;47.936;8.716;2023-09-19T15:54:30;20.40;54.70
11229;DHT22;5671;47.936;8.716;2023-09-19T15:57:12;20.30;54.40
11229;DHT22;5671;47.936;8.716;2023-09-19T15:59:51;20.30;54.30
11229;DHT22;5671;47.936;8.716;2023-09-19T16:02:18;20.30;54.30
11229;DHT22;5671;47.936;8.716;2023-09-19T16:04:44;20.20;54.80
11229;DHT22;5671;47.936;8.716;2023-09-19T16:07:11;20.20;55.50
11229;DHT22;5671;47.936;8.716;2023-09-19T16:09:47;20.10;55.90
11229;DHT22;5671;47.936;8.716;2023-09-19T16:12:14;20.10;56.50
11229;DHT22;5671;47.936;8.716;2023-09-19T16:14:41;20.10;56.70